createdAt,value
2019-02-28T00:05:35.016Z,30.5
2019-02-28T00:10:43.641Z,30
2019-02-28T06:36:33.834Z,42.9
2019-02-28T06:41:42.230Z,42.5
2019-02-28T06:46:50.907Z,42.3
2019-02-28T06:51:59.436Z,42.7
2019-02-28T06:57:08.029Z,42.3
2019-02-28T07:17:42.351Z,42.6
2019-02-28T07:22:50.852Z,42.7
2019-02-28T07:27:59.357Z,42.3
2019-02-28T07:33:08.843Z,42.5
2019-02-28T07:38:16.469Z,41.9
2019-02-28T07:43:24.702Z,41.5
2019-02-28T07:48:33.182Z,40.6
2019-02-28T07:53:41.522Z,40.9
2019-02-28T08:09:06.486Z,39.2
2019-02-28T08:14:14.723Z,39.4
2019-02-28T08:19:22.908Z,39.6
2019-02-28T08:24:31.079Z,38.1
2019-02-28T08:29:39.204Z,37.8
2019-02-28T08:34:47.304Z,37.8
2019-02-28T08:45:03.439Z,36.4
2019-02-28T08:50:11.457Z,35.3
2019-02-28T08:55:19.357Z,34.7
2019-02-28T09:00:27.260Z,34.4
2019-02-28T09:05:35.030Z,33.4
2019-02-28T09:10:43.004Z,33.5
2019-02-28T09:15:50.697Z,33.4
2019-02-28T09:20:58.534Z,33.4
2019-02-28T09:26:07.339Z,32.9
2019-02-28T09:31:14.577Z,33
2019-02-28T09:36:22.200Z,32.6
2019-02-28T09:46:38.039Z,33.1
2019-02-28T09:51:45.897Z,34
2019-02-28T09:56:53.827Z,33.4
2019-02-28T10:02:01.529Z,33.5
2019-02-28T10:17:24.922Z,33.3
2019-02-28T10:22:32.519Z,31.9
2019-02-28T10:27:40.183Z,31.7
2019-02-28T10:32:47.887Z,31.3
2019-02-28T10:37:55.372Z,30.6
2019-02-28T10:43:02.787Z,29.7
2019-02-28T10:48:10.270Z,27.7
2019-02-28T10:53:19.231Z,28.7
2019-02-28T10:58:25.297Z,28.8
2019-02-28T11:03:32.918Z,27.8
2019-02-28T11:08:40.409Z,28.7
2019-02-28T11:18:55.567Z,29.6
2019-02-28T11:34:18.213Z,28.9
2019-02-28T11:39:25.872Z,28.7
2019-02-28T11:44:33.305Z,27.2
2019-02-28T11:54:48.303Z,26.2
2019-02-28T11:59:55.791Z,25.5
2019-02-28T12:10:10.786Z,26.2
2019-02-28T12:15:18.443Z,27.3
2019-02-28T12:20:25.902Z,27.6
2019-02-28T12:25:33.523Z,28.2
2019-02-28T12:30:41.110Z,27.8
2019-02-28T12:35:48.764Z,29.3
2019-02-28T12:46:03.997Z,28.7
2019-02-28T12:51:13.328Z,28.4
2019-02-28T13:11:42.195Z,28.6
2019-02-28T13:21:57.506Z,28.1
2019-02-28T13:27:05.057Z,28
2019-02-28T13:32:12.544Z,27.5
2019-02-28T13:37:20.202Z,27.6
2019-02-28T13:42:27.771Z,27.6
2019-02-28T13:47:35.325Z,27.6
2019-02-28T13:57:50.524Z,27.2
2019-02-28T14:02:58.064Z,28
2019-02-28T14:08:05.700Z,28
2019-02-28T14:18:21.013Z,27.8
2019-02-28T14:23:28.645Z,27.3
2019-02-28T14:28:36.260Z,27.1
2019-02-28T14:33:43.919Z,27.7
2019-02-28T14:38:51.582Z,27.3
2019-02-28T14:43:59.305Z,28.1
2019-02-28T14:54:14.782Z,34
2019-02-28T15:09:38.789Z,33.4
2019-02-28T15:14:46.793Z,33.1
2019-02-28T15:19:54.677Z,33.1
2019-02-28T15:25:02.604Z,32.6
2019-02-28T15:30:10.570Z,33
2019-02-28T15:35:18.560Z,32.9
2019-02-28T15:45:34.428Z,33.6
2019-02-28T15:50:42.459Z,34.2
2019-02-28T16:00:58.486Z,34
2019-02-28T16:06:06.370Z,33.9
2019-02-28T16:11:14.387Z,33.7
2019-02-28T16:36:54.471Z,36.5
2019-02-28T16:42:02.630Z,36.4
2019-02-28T16:47:10.491Z,36.6
2019-02-28T16:52:18.648Z,36.6
2019-02-28T17:02:34.964Z,37.5
2019-02-28T17:12:50.937Z,38
2019-02-28T17:23:07.386Z,37.8
2019-02-28T17:28:15.456Z,38.3
2019-02-28T17:33:23.462Z,38.1
2019-02-28T17:38:31.707Z,38.4
2019-02-28T17:48:48.034Z,38.6
2019-02-28T17:53:56.297Z,38.5
2019-02-28T18:04:12.550Z,39.1
2019-02-28T18:09:20.702Z,39.1
2019-02-28T18:19:37.065Z,39.6
2019-02-28T18:24:45.126Z,39.4
2019-02-28T18:35:01.523Z,40.4
2019-02-28T18:40:09.805Z,40.1
2019-02-28T18:45:17.939Z,40.5
2019-02-28T18:50:26.192Z,40.6
2019-02-28T18:55:34.447Z,40.3
2019-02-28T19:00:42.617Z,40.3
2019-02-28T19:05:50.771Z,40.4
2019-02-28T19:10:59.048Z,41
2019-02-28T19:16:07.278Z,41
2019-02-28T19:21:15.482Z,41
2019-02-28T19:26:24.545Z,40.3
2019-02-28T19:31:31.786Z,40.5
2019-02-28T19:36:39.995Z,41.2
2019-02-28T19:41:48.206Z,41.2
2019-02-28T19:46:56.493Z,40.7
2019-02-28T19:52:04.778Z,40.8
2019-02-28T20:02:21.073Z,41.3
2019-02-28T20:07:29.366Z,40.3
2019-02-28T20:12:37.581Z,40.6
2019-02-28T20:17:45.763Z,40.8
2019-02-28T20:22:54.195Z,40.7
2019-02-28T20:28:02.226Z,40.8
2019-02-28T20:33:10.324Z,40.5
2019-02-28T20:38:18.607Z,41
2019-02-28T20:43:26.837Z,40.9
2019-02-28T20:48:34.938Z,40.7
2019-02-28T20:53:43.181Z,40.4
2019-02-28T20:58:51.392Z,40.9
2019-02-28T21:09:07.844Z,40.8
2019-02-28T21:14:15.976Z,41.3
2019-02-28T21:19:24.275Z,40.6
2019-02-28T21:29:40.734Z,41.9
2019-02-28T21:34:48.948Z,42.1
2019-02-28T21:45:05.492Z,42.5
2019-02-28T21:50:13.739Z,42.2
2019-02-28T21:55:22.048Z,42.9
2019-02-28T22:00:30.417Z,42.9
2019-02-28T22:05:38.578Z,42.9
2019-02-28T22:10:46.879Z,43.2
2019-02-28T22:15:55.232Z,43.4
2019-02-28T22:21:03.470Z,44.1
2019-02-28T22:31:20.190Z,43.8
2019-02-28T22:36:28.538Z,43.8
2019-02-28T22:41:36.817Z,43.8
2019-02-28T22:46:45.131Z,43.7
2019-02-28T22:51:53.468Z,44.3
2019-02-28T22:57:01.830Z,44.2
2019-02-28T23:02:10.227Z,44.4
2019-02-28T23:07:18.446Z,44.5
2019-02-28T23:12:26.857Z,43.9
2019-02-28T23:17:35.137Z,44.6
2019-02-28T23:27:51.804Z,44.9
2019-02-28T23:33:00.327Z,45.8
2019-02-28T23:38:08.403Z,46
2019-02-28T23:43:16.663Z,45.9
2019-02-28T23:48:25.095Z,46.7
2019-02-28T23:53:33.451Z,46.5
2019-02-28T23:58:41.784Z,46.5
